sensor_id;sensor_type;location;lat;lon;timestamp;pressure;altitude;pressure_sealevel;temperature;humidity
64078;BME280;51039;49.696;10.808;2023-03-13T00:00:57;97822.75;;;6.92;94.11
64078;BME280;51039;49.696;10.808;2023-03-13T00:03:23;97826.59;;;6.89;93.90
64078;BME280;51039;49.696;10.808;2023-03-13T00:05:49;97813.38;;;6.82;94.08
64078;BME280;51039;49.696;10.808;2023-03-13T00:08:14;97815.00;;;6.83;93.96
64078;BME280;51039;49.696;10.808;2023-03-13T00:10:40;97816.19;;;6.81;93.90
64078;BME280;51039;49.696;10.808;2023-03-13T00:13:08;97807.28;;;6.82;93.87
64078;BME280;51039;49.696;10.808;2023-03-13T00:15:34;97811.31;;;6.78;93.82
64078;BME280;51039;49.696;10.808;2023-03-13T00:18:00;97803.00;;;6.74;94.00
64078;BME280;51039;49.696;10.808;2023-03-13T00:20:25;97801.88;;;6.62;94.67
64078;BME280;51039;49.696;10.808;2023-03-13T00:22:51;97802.09;;;6.60;94.74
64078;BME280;51039;49.696;10.808;2023-03-13T00:25:16;97808.16;;;6.61;94.55
64078;BME280;51039;49.696;10.808;2023-03-13T00:27:41;97793.69;;;6.50;95.17
64078;BME280;51039;49.696;10.808;2023-03-13T00:30:07;97788.06;;;6.53;95.14
64078;BME280;51039;49.696;10.808;2023-03-13T00:32:33;97793.31;;;6.53;95.16
64078;BME280;51039;49.696;10.808;2023-03-13T00:34:58;97798.41;;;6.55;95.09
64078;BME280;51039;49.696;10.808;2023-03-13T00:37:23;97798.84;;;6.58;94.88
64078;BME280;51039;49.696;10.808;2023-03-13T00:39:48;97797.19;;;6.57;94.83
64078;BME280;51039;49.696;10.808;2023-03-13T00:42:14;97788.31;;;6.58;94.60
64078;BME280;51039;49.696;10.808;2023-03-13T00:44:39;97790.72;;;6.60;94.59
64078;BME280;51039;49.696;10.808;2023-03-13T00:47:04;97786.66;;;6.57;94.21
64078;BME280;51039;49.696;10.808;2023-03-13T00:49:31;97798.84;;;6.58;94.31
64078;BME280;51039;49.696;10.808;2023-03-13T00:51:56;97788.44;;;6.50;94.77
64078;BME280;51039;49.696;10.808;2023-03-13T00:54:21;97788.88;;;6.54;94.62
64078;BME280;51039;49.696;10.808;2023-03-13T00:56:47;97771.88;;;6.56;94.73
64078;BME280;51039;49.696;10.808;2023-03-13T00:59:12;97774.13;;;6.59;94.20
64078;BME280;51039;49.696;10.808;2023-03-13T01:01:38;97782.28;;;6.64;94.05
64078;BME280;51039;49.696;10.808;2023-03-13T01:04:04;97777.81;;;6.65;93.59
64078;BME280;51039;49.696;10.808;2023-03-13T01:06:33;97776.81;;;6.66;93.79
64078;BME280;51039;49.696;10.808;2023-03-13T01:09:00;97766.91;;;6.68;93.63
64078;BME280;51039;49.696;10.808;2023-03-13T01:11:29;97766.47;;;6.64;93.88
64078;BME280;51039;49.696;10.808;2023-03-13T01:13:57;97766.84;;;6.61;94.26
64078;BME280;51039;49.696;10.808;2023-03-13T01:16:25;97758.34;;;6.59;93.82
64078;BME280;51039;49.696;10.808;2023-03-13T01:18:53;97754.72;;;6.60;93.76
64078;BME280;51039;49.696;10.808;2023-03-13T01:21:21;97747.63;;;6.61;93.48
64078;BME280;51039;49.696;10.808;2023-03-13T01:23:48;97740.72;;;6.60;93.55
64078;BME280;51039;49.696;10.808;2023-03-13T01:26:15;97738.94;;;6.60;93.38
64078;BME280;51039;49.696;10.808;2023-03-13T01:28:40;97743.78;;;6.63;93.51
64078;BME280;51039;49.696;10.808;2023-03-13T01:31:09;97733.88;;;6.65;92.96
64078;BME280;51039;49.696;10.808;2023-03-13T01:33:39;97732.88;;;6.66;92.87
64078;BME280;51039;49.696;10.808;2023-03-13T01:36:05;97734.91;;;6.64;92.87
64078;BME280;51039;49.696;10.808;2023-03-13T01:38:31;97726.59;;;6.67;92.68
64078;BME280;51039;49.696;10.808;2023-03-13T01:40:57;97732.72;;;6.68;92.80
64078;BME280;51039;49.696;10.808;2023-03-13T01:43:24;97733.84;;;6.59;92.99
64078;BME280;51039;49.696;10.808;2023-03-13T01:48:34;97721.31;;;6.61;92.91
64078;BME280;51039;49.696;10.808;2023-03-13T01:51:08;97715.88;;;6.62;92.99
64078;BME280;51039;49.696;10.808;2023-03-13T01:53:37;97715.88;;;6.62;92.86
64078;BME280;51039;49.696;10.808;2023-03-13T01:56:09;97718.06;;;6.59;92.82
64078;BME280;51039;49.696;10.808;2023-03-13T01:58:39;97710.59;;;6.62;92.72
64078;BME280;51039;49.696;10.808;2023-03-13T02:01:05;97699.84;;;6.64;92.87
64078;BME280;51039;49.696;10.808;2023-03-13T02:03:31;97699.47;;;6.67;92.71
64078;BME280;51039;49.696;10.808;2023-03-13T02:05:58;97701.75;;;6.70;92.15
64078;BME280;51039;49.696;10.808;2023-03-13T02:08:35;97698.28;;;6.69;92.58
64078;BME280;51039;49.696;10.808;2023-03-13T02:11:22;97695.28;;;6.73;92.30
64078;BME280;51039;49.696;10.808;2023-03-13T02:13:52;97692.81;;;6.71;92.46
64078;BME280;51039;49.696;10.808;2023-03-13T02:16:20;97682.91;;;6.73;92.20
64078;BME280;51039;49.696;10.808;2023-03-13T02:18:45;97682.09;;;6.73;92.42
64078;BME280;51039;49.696;10.808;2023-03-13T02:21:46;97682.72;;;6.75;92.16
64078;BME280;51039;49.696;10.808;2023-03-13T02:24:21;97670.97;;;6.71;92.44
64078;BME280;51039;49.696;10.808;2023-03-13T02:27:06;97670.59;;;6.74;92.36
64078;BME280;51039;49.696;10.808;2023-03-13T02:29:32;97677.47;;;6.75;92.35
64078;BME280;51039;49.696;10.808;2023-03-13T02:31:57;97667.97;;;6.80;91.77
64078;BME280;51039;49.696;10.808;2023-03-13T02:34:29;97659.69;;;6.83;91.43
64078;BME280;51039;49.696;10.808;2023-03-13T02:36:58;97664.75;;;6.85;91.64
64078;BME280;51039;49.696;10.808;2023-03-13T02:39:24;97661.91;;;6.86;91.42
64078;BME280;51039;49.696;10.808;2023-03-13T02:41:52;97658.09;;;6.89;91.40
64078;BME280;51039;49.696;10.808;2023-03-13T02:44:18;97653.44;;;6.91;91.39
64078;BME280;51039;49.696;10.808;2023-03-13T02:46:48;97638.47;;;6.92;91.27
64078;BME280;51039;49.696;10.808;2023-03-13T02:49:21;97643.13;;;6.90;91.43
64078;BME280;51039;49.696;10.808;2023-03-13T02:51:51;97639.44;;;6.84;91.63
64078;BME280;51039;49.696;10.808;2023-03-13T02:54:20;97633.16;;;6.85;91.73
64078;BME280;51039;49.696;10.808;2023-03-13T02:56:49;97637.44;;;6.93;90.99
64078;BME280;51039;49.696;10.808;2023-03-13T02:59:19;97627.31;;;6.96;90.92
64078;BME280;51039;49.696;10.808;2023-03-13T03:01:45;97625.91;;;6.94;91.08
64078;BME280;51039;49.696;10.808;2023-03-13T03:04:10;97623.28;;;7.00;90.96
64078;BME280;51039;49.696;10.808;2023-03-13T03:06:35;97633.44;;;7.03;90.94
64078;BME280;51039;49.696;10.808;2023-03-13T03:09:01;97628.78;;;7.05;90.47
64078;BME280;51039;49.696;10.808;2023-03-13T03:11:27;97620.88;;;7.05;90.70
64078;BME280;51039;49.696;10.808;2023-03-13T03:13:52;97623.13;;;7.08;90.82
64078;BME280;51039;49.696;10.808;2023-03-13T03:16:17;97620.28;;;7.10;90.56
64078;BME280;51039;49.696;10.808;2023-03-13T03:18:43;97610.75;;;7.09;90.57
64078;BME280;51039;49.696;10.808;2023-03-13T03:21:08;97615.22;;;7.08;91.01
64078;BME280;51039;49.696;10.808;2023-03-13T03:23:34;97609.75;;;7.10;91.01
64078;BME280;51039;49.696;10.808;2023-03-13T03:26:01;97608.94;;;7.10;91.09
64078;BME280;51039;49.696;10.808;2023-03-13T03:28:28;97600.03;;;7.11;91.10
64078;BME280;51039;49.696;10.808;2023-03-13T03:30:53;97599.63;;;7.14;91.23
64078;BME280;51039;49.696;10.808;2023-03-13T03:33:20;97598.63;;;7.15;91.10
64078;BME280;51039;49.696;10.808;2023-03-13T03:35:45;97594.16;;;7.15;91.04
64078;BME280;51039;49.696;10.808;2023-03-13T03:38:11;97590.72;;;7.15;91.02
64078;BME280;51039;49.696;10.808;2023-03-13T03:40:36;97602.06;;;7.15;91.29
64078;BME280;51039;49.696;10.808;2023-03-13T03:43:01;97583.81;;;7.14;91.13
64078;BME280;51039;49.696;10.808;2023-03-13T03:45:27;97583.63;;;7.15;91.02
64078;BME280;51039;49.696;10.808;2023-03-13T03:47:52;97583.25;;;7.18;91.12
64078;BME280;51039;49.696;10.808;2023-03-13T03:50:18;97575.72;;;7.15;90.94
64078;BME280;51039;49.696;10.808;2023-03-13T03:52:43;97574.72;;;7.16;91.03
64078;BME280;51039;49.696;10.808;2023-03-13T03:55:08;97568.25;;;7.12;91.33
64078;BME280;51039;49.696;10.808;2023-03-13T03:57:34;97568.63;;;7.09;91.89
64078;BME280;51039;49.696;10.808;2023-03-13T03:59:59;97569.03;;;7.13;91.32
64078;BME280;51039;49.696;10.808;2023-03-13T04:02:24;97560.72;;;7.16;91.23
64078;BME280;51039;49.696;10.808;2023-03-13T04:04:49;97562.13;;;7.12;91.54
64078;BME280;51039;49.696;10.808;2023-03-13T04:07:15;97562.56;;;7.08;91.19
64078;BME280;51039;49.696;10.808;2023-03-13T04:09:40;97553.25;;;7.13;91.38
64078;BME280;51039;49.696;10.808;2023-03-13T04:12:05;97552.63;;;7.11;91.40
64078;BME280;51039;49.696;10.808;2023-03-13T04:14:31;97546.75;;;7.08;91.29
64078;BME280;51039;49.696;10.808;2023-03-13T04:16:56;97546.53;;;7.10;91.28
64078;BME280;51039;49.696;10.808;2023-03-13T04:19:22;97537.44;;;7.13;90.89
64078;BME280;51039;49.696;10.808;2023-03-13T04:21:47;97532.19;;;7.13;90.80
64078;BME280;51039;49.696;10.808;2023-03-13T04:24:12;97529.53;;;7.13;91.00
64078;BME280;51039;49.696;10.808;2023-03-13T04:26:37;97529.53;;;7.13;90.90
64078;BME280;51039;49.696;10.808;2023-03-13T04:29:03;97517.38;;;7.12;90.98
64078;BME280;51039;49.696;10.808;2023-03-13T04:31:30;97519.63;;;7.15;90.84
64078;BME280;51039;49.696;10.808;2023-03-13T04:33:55;97513.31;;;7.16;90.97
64078;BME280;51039;49.696;10.808;2023-03-13T04:36:21;97508.88;;;7.16;91.26
64078;BME280;51039;49.696;10.808;2023-03-13T04:38:46;97515.94;;;7.16;91.40
64078;BME280;51039;49.696;10.808;2023-03-13T04:41:11;97520.63;;;7.14;91.66
64078;BME280;51039;49.696;10.808;2023-03-13T04:43:36;97521.03;;;7.11;92.06
64078;BME280;51039;49.696;10.808;2023-03-13T04:46:02;97521.41;;;7.07;92.24
64078;BME280;51039;49.696;10.808;2023-03-13T04:48:27;97510.91;;;7.14;92.32
64078;BME280;51039;49.696;10.808;2023-03-13T04:50:52;97506.84;;;7.18;91.78
64078;BME280;51039;49.696;10.808;2023-03-13T04:53:18;97511.50;;;7.10;92.83
64078;BME280;51039;49.696;10.808;2023-03-13T04:55:43;97515.16;;;7.08;93.40
64078;BME280;51039;49.696;10.808;2023-03-13T04:58:09;97512.53;;;7.08;93.59
64078;BME280;51039;49.696;10.808;2023-03-13T05:00:34;97508.06;;;7.09;93.52
64078;BME280;51039;49.696;10.808;2023-03-13T05:02:59;97506.03;;;7.11;93.70
64078;BME280;51039;49.696;10.808;2023-03-13T05:05:25;97507.03;;;7.10;94.33
64078;BME280;51039;49.696;10.808;2023-03-13T05:07:50;97505.00;;;7.05;94.93
64078;BME280;51039;49.696;10.808;2023-03-13T05:10:15;97492.03;;;7.04;95.22
64078;BME280;51039;49.696;10.808;2023-03-13T05:12:41;97485.97;;;7.03;95.52
64078;BME280;51039;49.696;10.808;2023-03-13T05:15:06;97485.16;;;7.03;96.12
64078;BME280;51039;49.696;10.808;2023-03-13T05:17:32;97487.63;;;7.04;96.12
64078;BME280;51039;49.696;10.808;2023-03-13T05:19:57;97490.22;;;6.98;97.74
64078;BME280;51039;49.696;10.808;2023-03-13T05:22:22;97485.16;;;6.96;98.13
64078;BME280;51039;49.696;10.808;2023-03-13T05:24:48;97479.50;;;6.99;98.24
64078;BME280;51039;49.696;10.808;2023-03-13T05:27:13;97475.03;;;6.93;98.93
64078;BME280;51039;49.696;10.808;2023-03-13T05:29:38;97471.56;;;6.93;99.42
64078;BME280;51039;49.696;10.808;2023-03-13T05:32:04;97468.56;;;6.89;100.00
64078;BME280;51039;49.696;10.808;2023-03-13T05:34:29;97456.78;;;6.85;100.00
64078;BME280;51039;49.696;10.808;2023-03-13T05:36:54;97453.16;;;6.86;100.00
64078;BME280;51039;49.696;10.808;2023-03-13T05:39:20;97458.19;;;6.81;100.00
64078;BME280;51039;49.696;10.808;2023-03-13T05:41:45;97457.81;;;6.84;100.00
64078;BME280;51039;49.696;10.808;2023-03-13T05:44:10;97452.13;;;6.87;100.00
64078;BME280;51039;49.696;10.808;2023-03-13T05:46:36;97449.91;;;6.91;100.00
64078;BME280;51039;49.696;10.808;2023-03-13T05:49:01;97447.88;;;6.93;100.00
64078;BME280;51039;49.696;10.808;2023-03-13T05:51:26;97447.50;;;6.89;100.00
64078;BME280;51039;49.696;10.808;2023-03-13T05:53:51;97440.78;;;6.86;100.00
64078;BME280;51039;49.696;10.808;2023-03-13T05:56:17;97435.34;;;6.81;100.00
64078;BME280;51039;49.696;10.808;2023-03-13T05:58:42;97437.56;;;6.84;100.00
64078;BME280;51039;49.696;10.808;2023-03-13T06:01:08;97430.69;;;6.83;100.00
64078;BME280;51039;49.696;10.808;2023-03-13T06:03:35;97424.81;;;6.88;100.00
64078;BME280;51039;49.696;10.808;2023-03-13T06:06:00;97419.13;;;6.84;100.00
64078;BME280;51039;49.696;10.808;2023-03-13T06:08:26;97416.72;;;6.90;100.00
64078;BME280;51039;49.696;10.808;2023-03-13T06:10:51;97428.88;;;6.97;100.00
64078;BME280;51039;49.696;10.808;2023-03-13T06:13:17;97420.16;;;7.03;100.00
64078;BME280;51039;49.696;10.808;2023-03-13T06:15:42;97416.09;;;7.07;100.00
64078;BME280;51039;49.696;10.808;2023-03-13T06:18:08;97426.44;;;7.09;100.00
64078;BME280;51039;49.696;10.808;2023-03-13T06:20:33;97425.78;;;7.27;100.00
64078;BME280;51039;49.696;10.808;2023-03-13T06:22:58;97416.69;;;7.30;100.00
64078;BME280;51039;49.696;10.808;2023-03-13T06:25:23;97416.28;;;7.39;100.00
64078;BME280;51039;49.696;10.808;2023-03-13T06:27:49;97421.13;;;7.42;100.00
64078;BME280;51039;49.696;10.808;2023-03-13T06:30:15;97417.28;;;7.38;100.00
64078;BME280;51039;49.696;10.808;2023-03-13T06:32:40;97411.56;;;7.48;100.00
64078;BME280;51039;49.696;10.808;2023-03-13T06:35:06;97413.63;;;7.53;100.00
64078;BME280;51039;49.696;10.808;2023-03-13T06:37:31;97405.72;;;7.53;100.00
64078;BME280;51039;49.696;10.808;2023-03-13T06:39:57;97405.28;;;7.56;100.00
64078;BME280;51039;49.696;10.808;2023-03-13T06:42:23;97402.25;;;7.59;100.00
64078;BME280;51039;49.696;10.808;2023-03-13T06:44:48;97398.56;;;7.66;100.00
64078;BME280;51039;49.696;10.808;2023-03-13T06:47:13;97393.47;;;7.72;100.00
64078;BME280;51039;49.696;10.808;2023-03-13T06:49:38;97398.34;;;7.75;100.00
64078;BME280;51039;49.696;10.808;2023-03-13T06:52:04;97398.53;;;7.80;100.00
64078;BME280;51039;49.696;10.808;2023-03-13T06:54:29;97393.22;;;7.86;100.00
64078;BME280;51039;49.696;10.808;2023-03-13T06:56:54;97399.28;;;7.94;100.00
64078;BME280;51039;49.696;10.808;2023-03-13T06:59:20;97403.13;;;7.98;100.00
64078;BME280;51039;49.696;10.808;2023-03-13T07:01:45;97400.06;;;8.01;100.00
64078;BME280;51039;49.696;10.808;2023-03-13T07:04:11;97403.91;;;8.05;100.00
64078;BME280;51039;49.696;10.808;2023-03-13T07:06:37;97407.94;;;8.07;100.00
64078;BME280;51039;49.696;10.808;2023-03-13T07:09:02;97408.75;;;8.08;100.00
64078;BME280;51039;49.696;10.808;2023-03-13T07:11:29;97410.38;;;8.02;100.00
64078;BME280;51039;49.696;10.808;2023-03-13T07:13:55;97399.41;;;8.12;100.00
64078;BME280;51039;49.696;10.808;2023-03-13T07:16:20;97408.91;;;8.20;100.00
64078;BME280;51039;49.696;10.808;2023-03-13T07:18:46;97406.22;;;8.26;100.00
64078;BME280;51039;49.696;10.808;2023-03-13T07:21:11;97405.81;;;8.30;100.00
64078;BME280;51039;49.696;10.808;2023-03-13T07:23:37;97414.13;;;8.26;100.00
64078;BME280;51039;49.696;10.808;2023-03-13T07:26:03;97406.56;;;8.37;100.00
64078;BME280;51039;49.696;10.808;2023-03-13T07:28:31;97409.00;;;8.45;100.00
64078;BME280;51039;49.696;10.808;2023-03-13T07:31:07;97403.13;;;8.43;100.00
64078;BME280;51039;49.696;10.808;2023-03-13T07:33:36;97396.13;;;8.55;100.00
64078;BME280;51039;49.696;10.808;2023-03-13T07:36:01;97396.69;;;8.64;100.00
64078;BME280;51039;49.696;10.808;2023-03-13T07:38:27;97392.81;;;8.67;100.00
64078;BME280;51039;49.696;10.808;2023-03-13T07:40:53;97385.50;;;8.69;100.00
64078;BME280;51039;49.696;10.808;2023-03-13T07:43:20;97385.44;;;8.75;100.00
64078;BME280;51039;49.696;10.808;2023-03-13T07:48:18;97377.47;;;8.82;100.00
64078;BME280;51039;49.696;10.808;2023-03-13T07:50:44;97372.41;;;8.80;100.00
64078;BME280;51039;49.696;10.808;2023-03-13T07:53:10;97367.91;;;8.81;100.00
64078;BME280;51039;49.696;10.808;2023-03-13T07:55:35;97377.03;;;8.85;100.00
64078;BME280;51039;49.696;10.808;2023-03-13T07:58:00;97373.78;;;8.83;100.00
64078;BME280;51039;49.696;10.808;2023-03-13T08:00:25;97375.22;;;8.86;100.00
64078;BME280;51039;49.696;10.808;2023-03-13T08:02:51;97383.72;;;8.88;100.00
64078;BME280;51039;49.696;10.808;2023-03-13T08:05:16;97383.63;;;8.76;100.00
64078;BME280;51039;49.696;10.808;2023-03-13T08:07:43;97392.56;;;8.75;100.00
64078;BME280;51039;49.696;10.808;2023-03-13T08:10:09;97389.63;;;8.83;100.00
64078;BME280;51039;49.696;10.808;2023-03-13T08:12:34;97387.53;;;8.92;100.00
64078;BME280;51039;49.696;10.808;2023-03-13T08:14:59;97379.84;;;8.90;100.00
64078;BME280;51039;49.696;10.808;2023-03-13T08:17:25;97380.59;;;8.97;100.00
64078;BME280;51039;49.696;10.808;2023-03-13T08:19:53;97377.63;;;9.12;100.00
64078;BME280;51039;49.696;10.808;2023-03-13T08:22:19;97376.84;;;9.30;100.00
64078;BME280;51039;49.696;10.808;2023-03-13T08:24:44;97374.50;;;9.40;100.00
64078;BME280;51039;49.696;10.808;2023-03-13T08:27:09;97381.03;;;9.38;100.00
64078;BME280;51039;49.696;10.808;2023-03-13T08:29:34;97375.22;;;9.48;100.00
64078;BME280;51039;49.696;10.808;2023-03-13T08:32:00;97368.69;;;9.50;100.00
64078;BME280;51039;49.696;10.808;2023-03-13T08:34:25;97370.91;;;9.53;100.00
64078;BME280;51039;49.696;10.808;2023-03-13T08:36:50;97362.19;;;9.53;99.39
64078;BME280;51039;49.696;10.808;2023-03-13T08:39:17;97366.88;;;9.51;99.66
64078;BME280;51039;49.696;10.808;2023-03-13T08:41:43;97365.41;;;9.55;99.83
64078;BME280;51039;49.696;10.808;2023-03-13T08:44:10;97362.19;;;9.53;100.00
64078;BME280;51039;49.696;10.808;2023-03-13T08:46:37;97374.81;;;9.51;100.00
64078;BME280;51039;49.696;10.808;2023-03-13T08:49:03;97376.34;;;9.58;100.00
64078;BME280;51039;49.696;10.808;2023-03-13T08:51:30;97369.81;;;9.61;100.00
64078;BME280;51039;49.696;10.808;2023-03-13T08:53:55;97359.97;;;9.68;99.62
64078;BME280;51039;49.696;10.808;2023-03-13T08:56:22;97358.63;;;9.77;99.78
64078;BME280;51039;49.696;10.808;2023-03-13T08:58:50;97350.88;;;9.94;99.23
64078;BME280;51039;49.696;10.808;2023-03-13T09:01:16;97343.97;;;10.23;98.67
64078;BME280;51039;49.696;10.808;2023-03-13T09:03:42;97355.94;;;10.56;97.28
64078;BME280;51039;49.696;10.808;2023-03-13T09:06:09;97357.94;;;10.85;96.57
64078;BME280;51039;49.696;10.808;2023-03-13T09:08:36;97359.69;;;11.03;95.84
64078;BME280;51039;49.696;10.808;2023-03-13T09:11:06;97354.50;;;11.31;95.78
64078;BME280;51039;49.696;10.808;2023-03-13T09:13:35;97358.66;;;11.27;95.73
64078;BME280;51039;49.696;10.808;2023-03-13T09:16:04;97356.00;;;11.27;96.32
64078;BME280;51039;49.696;10.808;2023-03-13T09:18:31;97362.69;;;11.30;96.87
64078;BME280;51039;49.696;10.808;2023-03-13T09:20:57;97352.09;;;11.30;96.89
64078;BME280;51039;49.696;10.808;2023-03-13T09:23:23;97350.34;;;11.35;97.05
64078;BME280;51039;49.696;10.808;2023-03-13T09:25:51;97346.88;;;11.35;96.59
64078;BME280;51039;49.696;10.808;2023-03-13T09:28:18;97344.47;;;11.45;96.65
64078;BME280;51039;49.696;10.808;2023-03-13T09:30:43;97346.84;;;11.58;96.48
64078;BME280;51039;49.696;10.808;2023-03-13T09:33:09;97346.84;;;11.70;96.11
64078;BME280;51039;49.696;10.808;2023-03-13T09:35:36;97349.34;;;11.77;95.73
64078;BME280;51039;49.696;10.808;2023-03-13T09:38:02;97338.72;;;11.77;95.88
64078;BME280;51039;49.696;10.808;2023-03-13T09:40:27;97349.09;;;11.90;95.49
64078;BME280;51039;49.696;10.808;2023-03-13T09:42:56;97338.63;;;11.84;95.87
64078;BME280;51039;49.696;10.808;2023-03-13T09:45:30;97337.78;;;11.95;95.86
64078;BME280;51039;49.696;10.808;2023-03-13T09:48:07;97332.91;;;12.04;95.51
64078;BME280;51039;49.696;10.808;2023-03-13T09:50:43;97337.22;;;12.22;95.02
64078;BME280;51039;49.696;10.808;2023-03-13T09:53:19;97336.34;;;12.33;94.48
64078;BME280;51039;49.696;10.808;2023-03-13T09:56:14;97334.66;;;12.27;93.99
64078;BME280;51039;49.696;10.808;2023-03-13T09:58:43;97351.31;;;12.22;94.16
64078;BME280;51039;49.696;10.808;2023-03-13T10:01:38;97337.41;;;12.32;94.01
64078;BME280;51039;49.696;10.808;2023-03-13T10:04:22;97353.13;;;12.22;93.92
64078;BME280;51039;49.696;10.808;2023-03-13T10:06:55;97353.53;;;12.13;94.69
64078;BME280;51039;49.696;10.808;2023-03-13T10:09:32;97355.75;;;12.05;94.90
64078;BME280;51039;49.696;10.808;2023-03-13T10:12:02;97353.25;;;11.98;95.77
64078;BME280;51039;49.696;10.808;2023-03-13T10:14:35;97352.44;;;11.97;95.21
64078;BME280;51039;49.696;10.808;2023-03-13T10:19:56;97346.28;;;12.09;94.91
64078;BME280;51039;49.696;10.808;2023-03-13T10:22:26;97356.34;;;12.07;94.30
64078;BME280;51039;49.696;10.808;2023-03-13T10:25:39;97350.19;;;12.06;94.17
64078;BME280;51039;49.696;10.808;2023-03-13T10:28:08;97363.56;;;12.11;93.35
64078;BME280;51039;49.696;10.808;2023-03-13T10:30:36;97347.19;;;12.14;93.28
64078;BME280;51039;49.696;10.808;2023-03-13T10:35:37;97339.09;;;12.38;92.06
64078;BME280;51039;49.696;10.808;2023-03-13T10:38:17;97335.56;;;12.49;90.47
64078;BME280;51039;49.696;10.808;2023-03-13T10:40:54;97330.00;;;12.68;89.79
64078;BME280;51039;49.696;10.808;2023-03-13T10:43:22;97335.56;;;13.00;87.57
64078;BME280;51039;49.696;10.808;2023-03-13T10:45:50;97326.06;;;13.04;87.93
64078;BME280;51039;49.696;10.808;2023-03-13T10:48:26;97313.97;;;13.30;86.15
64078;BME280;51039;49.696;10.808;2023-03-13T10:50:59;97320.41;;;13.79;83.74
64078;BME280;51039;49.696;10.808;2023-03-13T10:56:02;97310.47;;;14.23;81.66
64078;BME280;51039;49.696;10.808;2023-03-13T10:58:40;97304.25;;;14.12;81.80
64078;BME280;51039;49.696;10.808;2023-03-13T11:03:40;97294.94;;;14.42;79.47
64078;BME280;51039;49.696;10.808;2023-03-13T11:06:14;97299.94;;;14.61;80.11
64078;BME280;51039;49.696;10.808;2023-03-13T11:11:47;97276.22;;;15.65;76.01
64078;BME280;51039;49.696;10.808;2023-03-13T11:14:33;97283.38;;;15.54;75.67
64078;BME280;51039;49.696;10.808;2023-03-13T11:17:04;97286.31;;;15.47;75.69
64078;BME280;51039;49.696;10.808;2023-03-13T11:19:44;97280.00;;;15.16;77.29
64078;BME280;51039;49.696;10.808;2023-03-13T11:22:21;97282.78;;;14.84;77.22
64078;BME280;51039;49.696;10.808;2023-03-13T11:31:08;97277.84;;;14.38;79.82
64078;BME280;51039;49.696;10.808;2023-03-13T11:36:31;97298.97;;;14.18;80.76
64078;BME280;51039;49.696;10.808;2023-03-13T11:42:12;97281.56;;;14.37;79.05
64078;BME280;51039;49.696;10.808;2023-03-13T11:45:20;97278.97;;;14.75;76.84
64078;BME280;51039;49.696;10.808;2023-03-13T11:56:18;97252.19;;;15.60;72.85
64078;BME280;51039;49.696;10.808;2023-03-13T12:01:18;97234.16;;;16.54;70.32
64078;BME280;51039;49.696;10.808;2023-03-13T12:08:48;97216.53;;;16.12;70.53
64078;BME280;51039;49.696;10.808;2023-03-13T12:11:26;97208.75;;;16.10;70.63
64078;BME280;51039;49.696;10.808;2023-03-13T12:16:42;97202.59;;;16.72;69.75
64078;BME280;51039;49.696;10.808;2023-03-13T12:19:20;97204.06;;;17.24;67.41
64078;BME280;51039;49.696;10.808;2023-03-13T12:21:53;97190.16;;;17.22;67.92
64078;BME280;51039;49.696;10.808;2023-03-13T12:24:32;97179.75;;;17.15;65.97
64078;BME280;51039;49.696;10.808;2023-03-13T12:27:04;97178.19;;;17.04;66.71
64078;BME280;51039;49.696;10.808;2023-03-13T12:32:17;97179.28;;;16.93;68.14
64078;BME280;51039;49.696;10.808;2023-03-13T12:34:54;97167.50;;;17.04;67.11
64078;BME280;51039;49.696;10.808;2023-03-13T12:37:30;97167.50;;;17.04;67.21
64078;BME280;51039;49.696;10.808;2023-03-13T12:40:05;97162.72;;;16.91;66.75
64078;BME280;51039;49.696;10.808;2023-03-13T12:45:17;97152.81;;;16.91;67.52
64078;BME280;51039;49.696;10.808;2023-03-13T12:53:56;97133.75;;;17.03;67.11
64078;BME280;51039;49.696;10.808;2023-03-13T12:59:14;97120.88;;;17.15;67.04
64078;BME280;51039;49.696;10.808;2023-03-13T13:01:50;97104.00;;;17.20;66.33
64078;BME280;51039;49.696;10.808;2023-03-13T13:04:24;97098.06;;;17.28;66.38
64078;BME280;51039;49.696;10.808;2023-03-13T13:11:59;97094.00;;;17.36;65.25
64078;BME280;51039;49.696;10.808;2023-03-13T13:16:55;97086.38;;;17.14;65.93
64078;BME280;51039;49.696;10.808;2023-03-13T13:24:55;97075.16;;;17.51;65.27
64078;BME280;51039;49.696;10.808;2023-03-13T13:29:57;97060.97;;;18.14;62.46
64078;BME280;51039;49.696;10.808;2023-03-13T13:32:43;97050.34;;;18.33;62.69
64078;BME280;51039;49.696;10.808;2023-03-13T13:40:59;97038.94;;;17.93;61.81
64078;BME280;51039;49.696;10.808;2023-03-13T13:43:30;97029.50;;;18.01;61.85
64078;BME280;51039;49.696;10.808;2023-03-13T13:45:59;97026.94;;;17.91;62.59
64078;BME280;51039;49.696;10.808;2023-03-13T13:48:35;97033.78;;;17.67;62.62
64078;BME280;51039;49.696;10.808;2023-03-13T14:01:44;96998.59;;;17.50;63.13
64078;BME280;51039;49.696;10.808;2023-03-13T14:04:10;96990.59;;;17.45;63.11
64078;BME280;51039;49.696;10.808;2023-03-13T14:06:41;96999.41;;;17.51;63.26
64078;BME280;51039;49.696;10.808;2023-03-13T14:09:33;96999.97;;;17.48;64.03
64078;BME280;51039;49.696;10.808;2023-03-13T14:11:56;96991.47;;;17.70;63.65
64078;BME280;51039;49.696;10.808;2023-03-13T14:14:22;96988.81;;;17.35;63.39
64078;BME280;51039;49.696;10.808;2023-03-13T14:16:48;96989.16;;;17.29;64.12
64078;BME280;51039;49.696;10.808;2023-03-13T14:19:29;96966.88;;;17.33;64.46
64078;BME280;51039;49.696;10.808;2023-03-13T14:22:05;96981.53;;;17.41;63.81
64078;BME280;51039;49.696;10.808;2023-03-13T14:24:32;96980.75;;;17.06;65.01
64078;BME280;51039;49.696;10.808;2023-03-13T14:26:58;96973.00;;;16.99;64.82
64078;BME280;51039;49.696;10.808;2023-03-13T14:29:23;96971.94;;;17.05;65.43
64078;BME280;51039;49.696;10.808;2023-03-13T14:31:53;96972.06;;;17.24;65.13
64078;BME280;51039;49.696;10.808;2023-03-13T14:34:22;96961.78;;;17.37;64.44
64078;BME280;51039;49.696;10.808;2023-03-13T14:36:50;96951.19;;;17.80;62.92